PWSweather.com
Personal Weather Stations
Station Observations
NIGHT1
EastleighGB

EastleighGB

Lat: 50.966307, Lon: -1.380982

Elevation: 78

Station Type: Davis VP2 with daytime FARS

Latest ConditionsUpdated 9:50:00 AM GMT Wednesday, May 4, 2016
Currently Today's Max Today's Min Today's Average
Temperature 56.8°F13.8°C 57.2°F14.0°C 36.9°F2.7°C 43.8°F6.6°C
Dew Point 46.0°F7.8°C 49.1°F9.5°C 35.3°F1.8°C 40.6°F4.8°C
Winds 6.6 mph S10.6 kmh S 7.0 mph S11.3 kmh S - 1.5 mph 2.4 kmh
Wind Gusts 12.0 mph19.3 kmh 16.0 mph25.7 kmh - -
Humidity 67% 95% 67% 89%
Pressure 30.30 in1026.1 mb 30.33 in1027.1 mb 30.30 in1026.1 mb -
Hour Temp Dew Point Humidity Winds Wind Gusts Pressure Precip Precip Rate Daily Precip Total
09:50 AM 56.8°F13.8°C 46.0°F7.8°C 67% 6.6 mph S10.6 kmh S 12.0 mph19.3 kmh 30.30 in1026.1 mb 0.00 in0.0 mm 0.00 in0.0 mm 0.00 in0.0 mm
09:45 AM 56.7°F13.7°C 45.9°F7.7°C 67% 7.0 mph S11.3 kmh S 12.0 mph19.3 kmh 30.30 in1026.1 mb 0.00 in0.0 mm 0.00 in0.0 mm 0.00 in0.0 mm
09:40 AM 56.8°F13.8°C 46.0°F7.8°C 67% 6.5 mph S10.5 kmh S 13.0 mph20.9 kmh 30.30 in1026.1 mb 0.00 in0.0 mm 0.00 in0.0 mm 0.00 in0.0 mm
09:35 AM 56.6°F13.7°C 45.8°F7.7°C 67% 5.8 mph S9.3 kmh S 13.0 mph20.9 kmh 30.31 in1026.4 mb 0.00 in0.0 mm 0.00 in0.0 mm 0.00 in0.0 mm
09:30 AM 56.6°F13.7°C 45.8°F7.7°C 67% 5.3 mph S8.5 kmh S 11.0 mph17.7 kmh 30.30 in1026.1 mb 0.00 in0.0 mm 0.00 in0.0 mm 0.00 in0.0 mm
09:25 AM 57.2°F14.0°C 46.3°F7.9°C 67% 5.6 mph SSE9.0 kmh SSE 14.0 mph22.5 kmh 30.30 in1026.1 mb 0.00 in0.0 mm 0.00 in0.0 mm 0.00 in0.0 mm
09:20 AM 56.8°F13.8°C 46.0°F7.8°C 67% 6.6 mph S10.6 kmh S 14.0 mph22.5 kmh 30.31 in1026.4 mb 0.00 in0.0 mm 0.00 in0.0 mm 0.00 in0.0 mm
09:15 AM 56.2°F13.4°C 46.2°F7.9°C 69% 6.9 mph S11.1 kmh S 16.0 mph25.7 kmh 30.31 in1026.4 mb 0.00 in0.0 mm 0.00 in0.0 mm 0.00 in0.0 mm
09:10 AM 56.3°F13.5°C 46.6°F8.1°C 70% 6.7 mph SSE10.8 kmh SSE 16.0 mph25.7 kmh 30.31 in1026.4 mb 0.00 in0.0 mm 0.00 in0.0 mm 0.00 in0.0 mm
09:05 AM 56.2°F13.4°C 46.9°F8.3°C 71% 6.5 mph SSE10.5 kmh SSE 13.0 mph20.9 kmh 30.31 in1026.4 mb 0.00 in0.0 mm 0.00 in0.0 mm 0.00 in0.0 mm
09:00 AM 55.8°F13.2°C 46.9°F8.3°C 72% 6.2 mph SSE10.0 kmh SSE 11.0 mph17.7 kmh 30.31 in1026.4 mb 0.00 in0.0 mm 0.00 in0.0 mm 0.00 in0.0 mm
08:55 AM 55.8°F13.2°C 46.9°F8.3°C 72% 6.0 mph SSE9.7 kmh SSE 11.0 mph17.7 kmh 30.31 in1026.4 mb 0.00 in0.0 mm 0.00 in0.0 mm 0.00 in0.0 mm
08:45 AM 55.2°F12.9°C 47.4°F8.6°C 75% 6.0 mph SSE9.7 kmh SSE 13.0 mph20.9 kmh 30.31 in1026.4 mb 0.00 in0.0 mm 0.00 in0.0 mm 0.00 in0.0 mm
08:40 AM 55.5°F13.1°C 48.1°F8.9°C 76% 6.0 mph SSE9.7 kmh SSE 10.0 mph16.1 kmh 30.31 in1026.4 mb 0.00 in0.0 mm 0.00 in0.0 mm 0.00 in0.0 mm
08:35 AM 55.1°F12.8°C 48.4°F9.1°C 78% 5.6 mph SSE9.0 kmh SSE 13.0 mph20.9 kmh 30.31 in1026.4 mb 0.00 in0.0 mm 0.00 in0.0 mm 0.00 in0.0 mm
08:30 AM 54.8°F12.7°C 49.1°F9.5°C 81% 5.1 mph S8.2 kmh S 13.0 mph20.9 kmh 30.31 in1026.4 mb 0.00 in0.0 mm 0.00 in0.0 mm 0.00 in0.0 mm
08:25 AM 54.2°F12.3°C 48.2°F9.0°C 80% 5.1 mph S8.2 kmh S 12.0 mph19.3 kmh 30.31 in1026.4 mb 0.00 in0.0 mm 0.00 in0.0 mm 0.00 in0.0 mm
08:20 AM 54.0°F12.2°C 48.6°F9.2°C 82% 5.0 mph S8.0 kmh S 10.0 mph16.1 kmh 30.31 in1026.4 mb 0.00 in0.0 mm 0.00 in0.0 mm 0.00 in0.0 mm
08:15 AM 53.7°F12.1°C 48.7°F9.3°C 83% 4.4 mph SSE7.1 kmh SSE 10.0 mph16.1 kmh 30.31 in1026.4 mb 0.00 in0.0 mm 0.00 in0.0 mm 0.00 in0.0 mm
08:10 AM 53.7°F12.1°C 49.0°F9.4°C 84% 4.1 mph S6.6 kmh S 9.0 mph14.5 kmh 30.31 in1026.4 mb 0.00 in0.0 mm 0.00 in0.0 mm 0.00 in0.0 mm
08:05 AM 53.0°F11.7°C 48.3°F9.1°C 84% 4.6 mph S7.4 kmh S 9.0 mph14.5 kmh 30.31 in1026.4 mb 0.00 in0.0 mm 0.00 in0.0 mm 0.00 in0.0 mm
08:00 AM 52.9°F11.6°C 48.5°F9.2°C 85% 4.7 mph S7.6 kmh S 11.0 mph17.7 kmh 30.31 in1026.4 mb 0.00 in0.0 mm 0.00 in0.0 mm 0.00 in0.0 mm
07:55 AM 52.3°F11.3°C 48.2°F9.0°C 86% 4.4 mph SSE7.1 kmh SSE 14.0 mph22.5 kmh 30.31 in1026.4 mb 0.00 in0.0 mm 0.00 in0.0 mm 0.00 in0.0 mm
07:50 AM 52.2°F11.2°C 48.1°F8.9°C 86% 4.7 mph SSE7.6 kmh SSE 14.0 mph22.5 kmh 30.31 in1026.4 mb 0.00 in0.0 mm 0.00 in0.0 mm 0.00 in0.0 mm
07:45 AM 51.7°F10.9°C 48.0°F8.9°C 87% 4.7 mph SSE7.6 kmh SSE 11.0 mph17.7 kmh 30.31 in1026.4 mb 0.00 in0.0 mm 0.00 in0.0 mm 0.00 in0.0 mm
07:40 AM 51.7°F10.9°C 48.0°F8.9°C 87% 3.9 mph SSE6.3 kmh SSE 11.0 mph17.7 kmh 30.31 in1026.4 mb 0.00 in0.0 mm 0.00 in0.0 mm 0.00 in0.0 mm
07:35 AM 51.5°F10.8°C 47.8°F8.8°C 87% 3.3 mph SSE5.3 kmh SSE 9.0 mph14.5 kmh 30.31 in1026.4 mb 0.00 in0.0 mm 0.00 in0.0 mm 0.00 in0.0 mm
07:30 AM 50.8°F10.4°C 47.4°F8.6°C 88% 3.6 mph S5.8 kmh S 7.0 mph11.3 kmh 30.31 in1026.4 mb 0.00 in0.0 mm 0.00 in0.0 mm 0.00 in0.0 mm
07:25 AM 49.9°F9.9°C 46.5°F8.1°C 88% 3.6 mph SSE5.8 kmh SSE 7.0 mph11.3 kmh 30.31 in1026.4 mb 0.00 in0.0 mm 0.00 in0.0 mm 0.00 in0.0 mm
07:20 AM 49.1°F9.5°C 45.7°F7.6°C 88% 2.6 mph SSE4.2 kmh SSE 8.0 mph12.9 kmh 30.31 in1026.4 mb 0.00 in0.0 mm 0.00 in0.0 mm 0.00 in0.0 mm
07:15 AM 48.6°F9.2°C 45.2°F7.3°C 88% 2.0 mph SSE3.2 kmh SSE 8.0 mph12.9 kmh 30.31 in1026.4 mb 0.00 in0.0 mm 0.00 in0.0 mm 0.00 in0.0 mm
07:10 AM 48.0°F8.9°C 44.9°F7.2°C 89% 2.0 mph SSE3.2 kmh SSE 5.0 mph8.0 kmh 30.31 in1026.4 mb 0.00 in0.0 mm 0.00 in0.0 mm 0.00 in0.0 mm
07:05 AM 47.3°F8.5°C 44.2°F6.8°C 89% 2.1 mph SE3.4 kmh SE 5.0 mph8.0 kmh 30.31 in1026.4 mb 0.00 in0.0 mm 0.00 in0.0 mm 0.00 in0.0 mm
07:00 AM 46.6°F8.1°C 43.8°F6.6°C 90% 1.9 mph ESE3.1 kmh ESE 4.0 mph6.4 kmh 30.31 in1026.4 mb 0.00 in0.0 mm 0.00 in0.0 mm 0.00 in0.0 mm
06:55 AM 45.9°F7.7°C 43.1°F6.2°C 90% 1.0 mph SE1.6 kmh SE 4.0 mph6.4 kmh 30.32 in1026.8 mb 0.00 in0.0 mm 0.00 in0.0 mm 0.00 in0.0 mm
06:50 AM 45.7°F7.6°C 43.2°F6.2°C 91% 0.2 mph S0.3 kmh S 4.0 mph6.4 kmh 30.32 in1026.8 mb 0.00 in0.0 mm 0.00 in0.0 mm 0.00 in0.0 mm
06:45 AM 45.2°F7.3°C 43.0°F6.1°C 92% Calm Calm -- 30.32 in1026.8 mb 0.00 in0.0 mm 0.00 in0.0 mm 0.00 in0.0 mm
06:40 AM 44.5°F6.9°C 42.3°F5.7°C 92% Calm Calm -- 30.32 in1026.8 mb 0.00 in0.0 mm 0.00 in0.0 mm 0.00 in0.0 mm
06:35 AM 44.0°F6.7°C 42.1°F5.6°C 93% Calm Calm -- 30.32 in1026.8 mb 0.00 in0.0 mm 0.00 in0.0 mm 0.00 in0.0 mm
06:30 AM 43.6°F6.4°C 41.7°F5.4°C 93% Calm Calm -- 30.32 in1026.8 mb 0.00 in0.0 mm 0.00 in0.0 mm 0.00 in0.0 mm
06:25 AM 43.0°F6.1°C 41.4°F5.2°C 94% Calm Calm -- 30.32 in1026.8 mb 0.00 in0.0 mm 0.00 in0.0 mm 0.00 in0.0 mm
06:20 AM 42.4°F5.8°C 40.8°F4.9°C 94% Calm Calm -- 30.32 in1026.8 mb 0.00 in0.0 mm 0.00 in0.0 mm 0.00 in0.0 mm
06:15 AM 41.8°F5.4°C 40.5°F4.7°C 95% Calm Calm -- 30.32 in1026.8 mb 0.00 in0.0 mm 0.00 in0.0 mm 0.00 in0.0 mm
06:10 AM 40.8°F4.9°C 39.5°F4.2°C 95% Calm Calm -- 30.32 in1026.8 mb 0.00 in0.0 mm 0.00 in0.0 mm 0.00 in0.0 mm
06:05 AM 41.0°F5.0°C 39.7°F4.3°C 95% Calm Calm -- 30.32 in1026.8 mb 0.00 in0.0 mm 0.00 in0.0 mm 0.00 in0.0 mm
06:00 AM 40.2°F4.6°C 38.9°F3.8°C 95% Calm Calm -- 30.32 in1026.8 mb 0.00 in0.0 mm 0.00 in0.0 mm 0.00 in0.0 mm
05:55 AM 39.3°F4.1°C 38.0°F3.3°C 95% Calm Calm -- 30.32 in1026.8 mb 0.00 in0.0 mm 0.00 in0.0 mm 0.00 in0.0 mm
05:50 AM 38.7°F3.7°C 37.4°F3.0°C 95% Calm Calm -- 30.32 in1026.8 mb 0.00 in0.0 mm 0.00 in0.0 mm 0.00 in0.0 mm
05:45 AM 38.2°F3.4°C 36.9°F2.7°C 95% Calm Calm -- 30.32 in1026.8 mb 0.00 in0.0 mm 0.00 in0.0 mm 0.00 in0.0 mm
05:40 AM 37.8°F3.2°C 36.5°F2.5°C 95% Calm Calm -- 30.32 in1026.8 mb 0.00 in0.0 mm 0.00 in0.0 mm 0.00 in0.0 mm
05:35 AM 37.7°F3.2°C 36.4°F2.4°C 95% Calm Calm -- 30.32 in1026.8 mb 0.00 in0.0 mm 0.00 in0.0 mm 0.00 in0.0 mm
05:30 AM 37.5°F3.1°C 36.2°F2.3°C 95% Calm Calm -- 30.32 in1026.8 mb 0.00 in0.0 mm 0.00 in0.0 mm 0.00 in0.0 mm
05:25 AM 37.3°F2.9°C 35.7°F2.1°C 94% Calm Calm -- 30.32 in1026.8 mb 0.00 in0.0 mm 0.00 in0.0 mm 0.00 in0.0 mm
05:20 AM 37.3°F2.9°C 35.7°F2.1°C 94% Calm Calm -- 30.32 in1026.8 mb 0.00 in0.0 mm 0.00 in0.0 mm 0.00 in0.0 mm
05:15 AM 37.4°F3.0°C 35.8°F2.1°C 94% Calm Calm -- 30.32 in1026.8 mb 0.00 in0.0 mm 0.00 in0.0 mm 0.00 in0.0 mm
05:10 AM 37.5°F3.1°C 35.9°F2.2°C 94% Calm Calm -- 30.31 in1026.4 mb 0.00 in0.0 mm 0.00 in0.0 mm 0.00 in0.0 mm
05:05 AM 37.3°F2.9°C 35.7°F2.1°C 94% Calm Calm -- 30.32 in1026.8 mb 0.00 in0.0 mm 0.00 in0.0 mm 0.00 in0.0 mm
05:00 AM 37.0°F2.8°C 35.4°F1.9°C 94% Calm Calm -- 30.31 in1026.4 mb 0.00 in0.0 mm 0.00 in0.0 mm 0.00 in0.0 mm
04:55 AM 37.0°F2.8°C 35.4°F1.9°C 94% Calm Calm -- 30.31 in1026.4 mb 0.00 in0.0 mm 0.00 in0.0 mm 0.00 in0.0 mm
04:50 AM 36.9°F2.7°C 35.3°F1.8°C 94% Calm Calm -- 30.31 in1026.4 mb 0.00 in0.0 mm 0.00 in0.0 mm 0.00 in0.0 mm
04:45 AM 37.0°F2.8°C 35.4°F1.9°C 94% Calm Calm 1.0 mph1.6 kmh 30.31 in1026.4 mb 0.00 in0.0 mm 0.00 in0.0 mm 0.00 in0.0 mm
04:40 AM 37.3°F2.9°C 35.7°F2.1°C 94% Calm Calm 1.0 mph1.6 kmh 30.31 in1026.4 mb 0.00 in0.0 mm 0.00 in0.0 mm 0.00 in0.0 mm
04:35 AM 37.5°F3.1°C 35.9°F2.2°C 94% 0.1 mph 0.2 kmh -- 30.31 in1026.4 mb 0.00 in0.0 mm 0.00 in0.0 mm 0.00 in0.0 mm
04:30 AM 37.6°F3.1°C 36.0°F2.2°C 94% 0.4 mph W0.6 kmh W 2.0 mph3.2 kmh 30.31 in1026.4 mb 0.00 in0.0 mm 0.00 in0.0 mm 0.00 in0.0 mm
04:25 AM 37.7°F3.2°C 36.1°F2.3°C 94% 0.5 mph W0.8 kmh W 2.0 mph3.2 kmh 30.31 in1026.4 mb 0.00 in0.0 mm 0.00 in0.0 mm 0.00 in0.0 mm
04:20 AM 37.7°F3.2°C 36.1°F2.3°C 94% 0.6 mph W1.0 kmh W 2.0 mph3.2 kmh 30.31 in1026.4 mb 0.00 in0.0 mm 0.00 in0.0 mm 0.00 in0.0 mm
04:15 AM 37.4°F3.0°C 35.8°F2.1°C 94% 0.9 mph W1.4 kmh W 3.0 mph4.8 kmh 30.31 in1026.4 mb 0.00 in0.0 mm 0.00 in0.0 mm 0.00 in0.0 mm
04:10 AM 37.4°F3.0°C 35.8°F2.1°C 94% 0.8 mph W1.3 kmh W 3.0 mph4.8 kmh 30.31 in1026.4 mb 0.00 in0.0 mm 0.00 in0.0 mm 0.00 in0.0 mm
04:05 AM 37.4°F3.0°C 35.8°F2.1°C 94% 0.4 mph WNW0.6 kmh WNW 3.0 mph4.8 kmh 30.31 in1026.4 mb 0.00 in0.0 mm 0.00 in0.0 mm 0.00 in0.0 mm
04:00 AM 37.4°F3.0°C 35.8°F2.1°C 94% 0.1 mph WNW0.2 kmh WNW 2.0 mph3.2 kmh 30.32 in1026.8 mb 0.00 in0.0 mm 0.00 in0.0 mm 0.00 in0.0 mm
03:55 AM 37.5°F3.1°C 35.9°F2.2°C 94% Calm Calm 3.0 mph4.8 kmh 30.31 in1026.4 mb 0.00 in0.0 mm 0.00 in0.0 mm 0.00 in0.0 mm
03:50 AM 37.6°F3.1°C 35.8°F2.1°C 93% Calm Calm 3.0 mph4.8 kmh 30.32 in1026.8 mb 0.00 in0.0 mm 0.00 in0.0 mm 0.00 in0.0 mm
03:45 AM 38.0°F3.3°C 36.4°F2.4°C 94% 0.2 mph 0.3 kmh -- 30.31 in1026.4 mb 0.00 in0.0 mm 0.00 in0.0 mm 0.00 in0.0 mm
03:40 AM 38.2°F3.4°C 36.6°F2.6°C 94% 0.7 mph 1.1 kmh -- 30.31 in1026.4 mb 0.00 in0.0 mm 0.00 in0.0 mm 0.00 in0.0 mm
03:35 AM 38.4°F3.6°C 36.8°F2.7°C 94% 0.9 mph WNW1.4 kmh WNW 3.0 mph4.8 kmh 30.31 in1026.4 mb 0.00 in0.0 mm 0.00 in0.0 mm 0.00 in0.0 mm
03:30 AM 38.4°F3.6°C 36.8°F2.7°C 94% 0.4 mph WNW0.6 kmh WNW 3.0 mph4.8 kmh 30.31 in1026.4 mb 0.00 in0.0 mm 0.00 in0.0 mm 0.00 in0.0 mm
03:25 AM 38.3°F3.5°C 36.5°F2.5°C 93% Calm Calm 2.0 mph3.2 kmh 30.32 in1026.8 mb 0.00 in0.0 mm 0.00 in0.0 mm 0.00 in0.0 mm
03:20 AM 38.4°F3.6°C 36.8°F2.7°C 94% Calm Calm 2.0 mph3.2 kmh 30.32 in1026.8 mb 0.00 in0.0 mm 0.00 in0.0 mm 0.00 in0.0 mm
03:15 AM 38.2°F3.4°C 36.4°F2.4°C 93% Calm Calm -- 30.32 in1026.8 mb 0.00 in0.0 mm 0.00 in0.0 mm 0.00 in0.0 mm
03:10 AM 38.4°F3.6°C 36.6°F2.6°C 93% Calm Calm -- 30.32 in1026.8 mb 0.00 in0.0 mm 0.00 in0.0 mm 0.00 in0.0 mm
03:05 AM 38.6°F3.7°C 36.8°F2.7°C 93% Calm Calm -- 30.32 in1026.8 mb 0.00 in0.0 mm 0.00 in0.0 mm 0.00 in0.0 mm
03:00 AM 38.8°F3.8°C 36.9°F2.7°C 93% Calm Calm -- 30.32 in1026.8 mb 0.00 in0.0 mm 0.00 in0.0 mm 0.00 in0.0 mm
02:55 AM 38.8°F3.8°C 36.9°F2.7°C 93% Calm Calm -- 30.32 in1026.8 mb 0.00 in0.0 mm 0.00 in0.0 mm 0.00 in0.0 mm
02:50 AM 38.7°F3.7°C 36.9°F2.7°C 93% Calm Calm -- 30.32 in1026.8 mb 0.00 in0.0 mm 0.00 in0.0 mm 0.00 in0.0 mm
02:45 AM 38.9°F3.8°C 37.0°F2.8°C 93% Calm Calm -- 30.32 in1026.8 mb 0.00 in0.0 mm 0.00 in0.0 mm 0.00 in0.0 mm
02:40 AM 39.2°F4.0°C 37.3°F2.9°C 93% Calm Calm -- 30.32 in1026.8 mb 0.00 in0.0 mm 0.00 in0.0 mm 0.00 in0.0 mm
02:35 AM 39.4°F4.1°C 37.5°F3.1°C 93% Calm Calm -- 30.32 in1026.8 mb 0.00 in0.0 mm 0.00 in0.0 mm 0.00 in0.0 mm
02:30 AM 39.5°F4.2°C 37.6°F3.1°C 93% Calm Calm -- 30.32 in1026.8 mb 0.00 in0.0 mm 0.00 in0.0 mm 0.00 in0.0 mm
02:25 AM 39.5°F4.2°C 37.6°F3.1°C 93% Calm Calm -- 30.32 in1026.8 mb 0.00 in0.0 mm 0.00 in0.0 mm 0.00 in0.0 mm
02:20 AM 39.7°F4.3°C 37.8°F3.2°C 93% Calm Calm -- 30.32 in1026.8 mb 0.00 in0.0 mm 0.00 in0.0 mm 0.00 in0.0 mm
02:15 AM 39.8°F4.3°C 37.9°F3.3°C 93% Calm Calm -- 30.32 in1026.8 mb 0.00 in0.0 mm 0.00 in0.0 mm 0.00 in0.0 mm
02:10 AM 39.9°F4.4°C 38.0°F3.3°C 93% Calm Calm -- 30.32 in1026.8 mb 0.00 in0.0 mm 0.00 in0.0 mm 0.00 in0.0 mm
02:05 AM 39.9°F4.4°C 38.0°F3.3°C 93% Calm Calm -- 30.32 in1026.8 mb 0.00 in0.0 mm 0.00 in0.0 mm 0.00 in0.0 mm
02:00 AM 40.1°F4.5°C 38.0°F3.3°C 92% Calm Calm -- 30.32 in1026.8 mb 0.00 in0.0 mm 0.00 in0.0 mm 0.00 in0.0 mm
01:55 AM 40.2°F4.6°C 38.3°F3.5°C 93% Calm Calm -- 30.32 in1026.8 mb 0.00 in0.0 mm 0.00 in0.0 mm 0.00 in0.0 mm
01:50 AM 40.2°F4.6°C 38.1°F3.4°C 92% Calm Calm -- 30.32 in1026.8 mb 0.00 in0.0 mm 0.00 in0.0 mm 0.00 in0.0 mm
01:45 AM 40.2°F4.6°C 38.1°F3.4°C 92% Calm Calm -- 30.32 in1026.8 mb 0.00 in0.0 mm 0.00 in0.0 mm 0.00 in0.0 mm
01:40 AM 40.2°F4.6°C 38.1°F3.4°C 92% Calm Calm -- 30.32 in1026.8 mb 0.00 in0.0 mm 0.00 in0.0 mm 0.00 in0.0 mm
01:35 AM 40.4°F4.7°C 38.3°F3.5°C 92% Calm Calm -- 30.32 in1026.8 mb 0.00 in0.0 mm 0.00 in0.0 mm 0.00 in0.0 mm
01:30 AM 40.6°F4.8°C 38.5°F3.6°C 92% Calm Calm -- 30.33 in1027.1 mb 0.00 in0.0 mm 0.00 in0.0 mm 0.00 in0.0 mm
01:25 AM 40.7°F4.8°C 38.6°F3.7°C 92% Calm Calm -- 30.33 in1027.1 mb 0.00 in0.0 mm 0.00 in0.0 mm 0.00 in0.0 mm
01:20 AM 40.9°F4.9°C 38.8°F3.8°C 92% Calm Calm -- 30.32 in1026.8 mb 0.00 in0.0 mm 0.00 in0.0 mm 0.00 in0.0 mm
01:15 AM 41.0°F5.0°C 38.9°F3.8°C 92% Calm Calm -- 30.33 in1027.1 mb 0.00 in0.0 mm 0.00 in0.0 mm 0.00 in0.0 mm
01:10 AM 41.1°F5.1°C 39.0°F3.9°C 92% Calm Calm -- 30.32 in1026.8 mb 0.00 in0.0 mm 0.00 in0.0 mm 0.00 in0.0 mm
01:05 AM 41.4°F5.2°C 39.0°F3.9°C 91% Calm Calm -- 30.33 in1027.1 mb 0.00 in0.0 mm 0.00 in0.0 mm 0.00 in0.0 mm
01:00 AM 41.6°F5.3°C 39.2°F4.0°C 91% Calm Calm -- 30.32 in1026.8 mb 0.00 in0.0 mm 0.00 in0.0 mm 0.00 in0.0 mm
12:55 AM 41.8°F5.4°C 39.4°F4.1°C 91% Calm Calm -- 30.33 in1027.1 mb 0.00 in0.0 mm 0.00 in0.0 mm 0.00 in0.0 mm
12:50 AM 41.9°F5.5°C 39.5°F4.2°C 91% Calm Calm -- 30.32 in1026.8 mb 0.00 in0.0 mm 0.00 in0.0 mm 0.00 in0.0 mm
12:45 AM 41.7°F5.4°C 39.3°F4.1°C 91% Calm Calm -- 30.32 in1026.8 mb 0.00 in0.0 mm 0.00 in0.0 mm 0.00 in0.0 mm
12:40 AM 41.9°F5.5°C 39.5°F4.2°C 91% Calm Calm -- 30.32 in1026.8 mb 0.00 in0.0 mm 0.00 in0.0 mm 0.00 in0.0 mm
12:35 AM 42.2°F5.7°C 39.8°F4.3°C 91% Calm Calm -- 30.32 in1026.8 mb 0.00 in0.0 mm 0.00 in0.0 mm 0.00 in0.0 mm
12:30 AM 42.4°F5.8°C 40.0°F4.4°C 91% Calm Calm -- 30.32 in1026.8 mb 0.00 in0.0 mm 0.00 in0.0 mm 0.00 in0.0 mm
12:25 AM 42.6°F5.9°C 40.2°F4.6°C 91% Calm Calm -- 30.32 in1026.8 mb 0.00 in0.0 mm 0.00 in0.0 mm 0.00 in0.0 mm
12:20 AM 42.8°F6.0°C 40.4°F4.7°C 91% Calm Calm -- 30.33 in1027.1 mb 0.00 in0.0 mm 0.00 in0.0 mm 0.00 in0.0 mm
12:15 AM 43.0°F6.1°C 40.3°F4.6°C 90% Calm Calm -- 30.33 in1027.1 mb 0.00 in0.0 mm 0.00 in0.0 mm 0.00 in0.0 mm
12:10 AM 42.9°F6.1°C 40.2°F4.6°C 90% Calm Calm -- 30.33 in1027.1 mb 0.00 in0.0 mm 0.00 in0.0 mm 0.00 in0.0 mm
12:05 AM 43.2°F6.2°C 40.5°F4.7°C 90% Calm Calm -- 30.33 in1027.1 mb 0.00 in0.0 mm 0.00 in0.0 mm 0.00 in0.0 mm
12:00 AM 43.3°F6.3°C 40.6°F4.8°C 90% Calm Calm -- 30.33 in1027.1 mb 0.00 in0.0 mm 0.00 in0.0 mm 0.00 in0.0 mm